Terminal Aerodrome Forecast
Issued by NWS

Home | Current Version | Previous Version | Text Only | Print | Product List | Glossary Off
Versions: 1 2 3 4 5 6 7 8 9 10 11 12 13 14 15 16 17 18 19 20 21 22 23 24 25 26 27

000
FTUS43 KFGF 230900 AAA
TAFBJI
TAF AMD
KBJI 230955Z 2310/2406 19006KT 1/2SM FG OVC003
     FM231200 19006KT 5SM BR BKN006
      TEMPO 2312/2316 2SM BR BKN004
     FM231900 24006KT P6SM BKN070
     FM232300 31015KT 4SM -SN BKN015=

USA.gov is the U.S. government's official web portal to all federal, state and local government web resources and services.